Time;durP1;ratioP1;P1;durP2;ratioP2;P2;SDS_P1;SDS_P2;PMS_P1;PMS_P2;Temp;Humidity;BMP_temperature;BMP_pressure;BME280_temperature;BME280_humidity;BME280_pressure;Samples;Min_cycle;Max_cycle;Signal;HPM_P1;HPM_P2
2022/04/13 00:00:07;;;;;;;30.17;13.18;;;;;;;2.85;100.00;100199.25;5032984;28;20570;-50
2022/04/13 00:03:02;;;;;;;27.58;14.60;;;;;;;2.73;100.00;100196.50;5027280;28;20144;-50
2022/04/13 00:05:48;;;;;;;28.70;14.57;;;;;;;2.69;100.00;100198.19;5024216;28;20073;-49
2022/04/13 00:08:34;;;;;;;26.73;14.57;;;;;;;2.70;100.00;100205.13;5024665;28;20046;-49
2022/04/13 00:11:18;;;;;;;36.47;16.05;;;;;;;2.64;100.00;100199.00;5027631;28;20056;-50
2022/04/13 00:14:03;;;;;;;30.17;14.57;;;;;;;2.65;100.00;100192.97;5025637;28;20037;-49
2022/04/13 00:16:47;;;;;;;30.23;14.48;;;;;;;2.68;100.00;100204.22;5023316;28;20042;-50
2022/04/13 00:19:32;;;;;;;27.30;14.70;;;;;;;2.76;100.00;100202.63;5016682;28;20056;-50
2022/04/13 00:22:17;;;;;;;29.63;14.55;;;;;;;2.62;100.00;100187.75;5019267;28;20053;-50
2022/04/13 00:25:01;;;;;;;31.45;15.00;;;;;;;2.68;100.00;100205.94;5017500;28;20060;-50
2022/04/13 00:27:46;;;;;;;29.77;16.35;;;;;;;2.67;100.00;100206.81;5014662;28;20050;-50
2022/04/13 00:30:31;;;;;;;33.47;16.67;;;;;;;2.65;100.00;100198.13;5021017;28;20049;-50
2022/04/13 00:33:15;;;;;;;26.52;15.77;;;;;;;2.72;100.00;100205.13;5016894;28;20469;-49
2022/04/13 00:36:00;;;;;;;27.52;15.18;;;;;;;2.55;100.00;100203.19;5015939;28;20054;-49
2022/04/13 00:38:44;;;;;;;30.30;15.45;;;;;;;2.61;100.00;100198.97;5014855;28;20073;-50
2022/04/13 00:41:29;;;;;;;33.38;15.82;;;;;;;2.53;100.00;100202.28;5014560;28;20060;-50
2022/04/13 00:44:14;;;;;;;36.90;15.63;;;;;;;2.53;100.00;100204.00;5014945;28;20050;-50
2022/04/13 00:47:03;;;;;;;26.00;14.50;;;;;;;2.51;100.00;100208.31;5013816;28;20104;-49
2022/04/13 00:49:48;;;;;;;26.90;15.23;;;;;;;2.51;100.00;100205.72;5014614;28;20069;-49
2022/04/13 00:52:35;;;;;;;32.10;16.15;;;;;;;2.62;100.00;100208.44;5013582;28;20484;-50
2022/04/13 00:55:24;;;;;;;27.48;15.13;;;;;;;2.56;100.00;100204.03;5013838;28;20053;-51
2022/04/13 00:58:14;;;;;;;33.45;17.17;;;;;;;2.56;100.00;100211.81;5014218;28;20079;-49
2022/04/13 01:01:02;;;;;;;30.92;15.43;;;;;;;2.61;100.00;100211.88;5014202;28;20045;-50
2022/04/13 01:03:51;;;;;;;36.65;18.17;;;;;;;2.53;100.00;100206.59;5016942;28;20045;-50
2022/04/13 01:06:35;;;;;;;36.63;18.67;;;;;;;2.45;100.00;100205.63;5013277;28;20042;-49
2022/04/13 01:09:23;;;;;;;39.20;21.25;;;;;;;2.41;100.00;100211.63;5013808;28;20732;-49
2022/04/13 01:12:08;;;;;;;37.17;20.85;;;;;;;2.38;100.00;100216.75;5013830;28;20078;-50
2022/04/13 01:14:53;;;;;;;35.67;20.55;;;;;;;2.40;100.00;100212.44;5013233;28;20050;-50
2022/04/13 01:17:40;;;;;;;33.20;18.85;;;;;;;2.48;100.00;100216.03;5012818;28;20131;-50
2022/04/13 01:20:25;;;;;;;35.30;20.65;;;;;;;2.22;100.00;100208.75;5014649;28;20050;-50
2022/04/13 01:23:09;;;;;;;33.90;19.52;;;;;;;2.23;100.00;100207.91;5014194;28;20721;-50
2022/04/13 01:25:55;;;;;;;33.78;17.80;;;;;;;2.34;100.00;100211.53;5013733;28;20061;-50
2022/04/13 01:28:40;;;;;;;34.17;18.75;;;;;;;2.33;100.00;100203.72;5013878;28;20081;-49
2022/04/13 01:31:24;;;;;;;36.13;18.20;;;;;;;2.32;100.00;100205.44;5018077;28;20057;-50
2022/04/13 01:34:09;;;;;;;34.45;19.25;;;;;;;2.19;100.00;100211.28;5023628;28;20053;-50
2022/04/13 01:36:54;;;;;;;31.80;17.25;;;;;;;2.15;100.00;100214.69;5029211;28;20045;-50
2022/04/13 01:39:40;;;;;;;34.97;17.17;;;;;;;2.26;100.00;100209.66;5030406;28;20045;-50
2022/04/13 01:42:28;;;;;;;29.25;16.27;;;;;;;2.31;100.00;100202.84;5030689;28;20050;-50
2022/04/13 01:45:19;;;;;;;30.85;16.77;;;;;;;2.30;100.00;100211.44;5028786;28;20058;-50
2022/04/13 01:48:04;;;;;;;39.63;19.23;;;;;;;2.24;100.00;100195.84;5030651;28;20045;-49
2022/04/13 01:50:49;;;;;;;32.67;16.27;;;;;;;2.14;100.00;100193.97;5029688;28;20045;-49
2022/04/13 01:53:35;;;;;;;28.05;15.80;;;;;;;2.18;100.00;100204.38;5030161;28;20048;-50
2022/04/13 01:56:19;;;;;;;26.73;14.73;;;;;;;2.12;100.00;100212.03;5032942;28;20175;-50
2022/04/13 01:59:03;;;;;;;27.85;14.77;;;;;;;1.97;100.00;100215.25;5034181;28;20427;-50
2022/04/13 02:01:48;;;;;;;28.00;14.48;;;;;;;1.98;100.00;100213.53;5034329;28;20045;-50
2022/04/13 02:04:34;;;;;;;39.95;17.20;;;;;;;2.02;100.00;100210.16;5034541;28;20048;-50
2022/04/13 02:07:18;;;;;;;48.63;19.95;;;;;;;1.97;100.00;100207.50;5034888;28;20073;-50
2022/04/13 02:10:05;;;;;;;30.95;14.57;;;;;;;1.84;100.00;100206.41;5034133;28;20045;-49
2022/04/13 02:12:49;;;;;;;28.25;14.57;;;;;;;1.88;100.00;100207.34;5022232;28;20041;-49
2022/04/13 02:15:34;;;;;;;26.38;14.63;;;;;;;1.93;100.00;100210.88;5029662;28;20050;-50
2022/04/13 02:18:18;;;;;;;30.23;15.25;;;;;;;1.93;100.00;100207.44;5023469;28;20412;-49
2022/04/13 02:21:03;;;;;;;28.65;14.85;;;;;;;1.91;100.00;100206.53;5031621;28;20093;-50
2022/04/13 02:23:47;;;;;;;33.30;14.98;;;;;;;1.85;100.00;100204.69;5017256;28;20810;-50
2022/04/13 02:26:32;;;;;;;28.85;14.35;;;;;;;1.77;100.00;100204.59;5028719;28;20111;-49
2022/04/13 02:29:16;;;;;;;24.52;14.60;;;;;;;1.81;100.00;100203.78;5033425;28;20045;-49
2022/04/13 02:32:02;;;;;;;26.25;14.68;;;;;;;1.76;100.00;100205.44;5027046;28;20456;-49
2022/04/13 02:34:48;;;;;;;30.25;15.43;;;;;;;1.74;100.00;100198.50;5015545;28;20053;-50
2022/04/13 02:37:33;;;;;;;30.83;14.57;;;;;;;1.70;100.00;100204.47;5028361;28;20056;-50
2022/04/13 02:40:19;;;;;;;28.08;14.05;;;;;;;1.69;100.00;100197.53;5033623;28;20057;-49
2022/04/13 02:43:04;;;;;;;29.52;13.90;;;;;;;1.74;100.00;100195.91;5034060;28;20062;-49
2022/04/13 02:45:48;;;;;;;27.02;13.90;;;;;;;1.60;100.00;100203.44;5020589;28;20054;-49
2022/04/13 02:48:32;;;;;;;28.45;14.45;;;;;;;1.58;100.00;100192.19;5032931;28;20049;-49
2022/04/13 02:51:17;;;;;;;30.25;13.90;;;;;;;1.58;100.00;100187.03;5030358;28;20046;-49
2022/04/13 02:54:01;;;;;;;29.02;14.40;;;;;;;1.58;100.00;100192.19;5019289;28;20057;-49
2022/04/13 02:56:46;;;;;;;25.50;14.23;;;;;;;1.40;100.00;100187.59;5017981;28;20045;-49
2022/04/13 02:59:30;;;;;;;27.60;14.32;;;;;;;1.52;100.00;100182.63;5016654;28;20057;-50
2022/04/13 03:02:15;;;;;;;28.15;14.45;;;;;;;1.39;100.00;100178.09;5016577;28;20060;-50
2022/04/13 03:05:00;;;;;;;27.65;13.70;;;;;;;1.32;100.00;100178.84;5015720;28;20476;-50
2022/04/13 03:07:45;;;;;;;33.53;16.05;;;;;;;1.43;100.00;100181.59;5028707;28;20044;-50
2022/04/13 03:10:30;;;;;;;26.30;14.95;;;;;;;1.39;100.00;100168.63;5033004;28;20048;-49
2022/04/13 03:13:14;;;;;;;30.10;15.95;;;;;;;1.28;100.00;100166.72;5033372;28;20037;-50
2022/04/13 03:15:59;;;;;;;29.10;14.75;;;;;;;1.30;100.00;100181.41;5034039;28;20053;-50
2022/04/13 03:18:43;;;;;;;26.23;13.63;;;;;;;1.27;100.00;100176.19;5033671;28;20056;-49
2022/04/13 03:21:28;;;;;;;27.70;15.10;;;;;;;1.19;100.00;100180.31;5017975;28;20512;-49
2022/04/13 03:24:12;;;;;;;26.08;13.80;;;;;;;1.17;100.00;100188.03;5015979;28;20508;-49
2022/04/13 03:26:57;;;;;;;25.23;13.48;;;;;;;1.22;100.00;100176.94;5016741;28;20180;-49
2022/04/13 03:29:41;;;;;;;28.48;16.02;;;;;;;1.20;100.00;100186.34;5023756;28;20071;-49
2022/04/13 03:32:26;;;;;;;26.13;13.88;;;;;;;1.21;100.00;100190.69;5024878;28;20864;-49
2022/04/13 03:35:11;;;;;;;23.58;13.88;;;;;;;1.20;100.00;100196.66;5016731;28;20049;-49
2022/04/13 03:37:56;;;;;;;27.45;14.38;;;;;;;1.17;100.00;100194.91;5015992;28;20049;-49
2022/04/13 03:40:41;;;;;;;25.33;13.73;;;;;;;1.12;100.00;100199.09;5016082;28;20046;-50
2022/04/13 03:43:27;;;;;;;26.42;13.90;;;;;;;1.16;100.00;100199.19;5031029;28;20100;-49
2022/04/13 03:46:11;;;;;;;28.55;16.25;;;;;;;1.08;100.00;100200.75;5032884;28;20589;-50
2022/04/13 03:48:56;;;;;;;29.85;16.08;;;;;;;1.10;100.00;100200.78;5031820;28;20053;-49
2022/04/13 03:51:41;;;;;;;31.05;16.17;;;;;;;1.13;100.00;100203.41;5033226;28;20049;-50
2022/04/13 03:54:25;;;;;;;27.23;14.93;;;;;;;1.06;100.00;100212.75;5017370;28;20456;-49
2022/04/13 03:57:10;;;;;;;26.50;14.63;;;;;;;1.04;100.00;100217.03;5024059;28;20136;-49
2022/04/13 03:59:55;;;;;;;29.85;14.80;;;;;;;1.15;100.00;100217.22;5033020;28;20066;-49
2022/04/13 04:02:40;;;;;;;32.63;17.65;;;;;;;1.13;100.00;100224.94;5031779;28;20094;-49
2022/04/13 04:05:24;;;;;;;30.73;16.45;;;;;;;1.20;100.00;100225.03;5032675;28;20057;-49
2022/04/13 04:08:09;;;;;;;41.92;19.00;;;;;;;1.28;100.00;100238.97;5026128;28;20049;-50
2022/04/13 04:10:54;;;;;;;41.65;19.73;;;;;;;1.31;100.00;100234.75;5031470;28;20061;-50
2022/04/13 04:13:39;;;;;;;47.78;21.45;;;;;;;1.20;100.00;100241.41;5020678;28;20045;-49
2022/04/13 04:16:24;;;;;;;55.42;24.63;;;;;;;1.21;100.00;100243.16;5029959;28;20524;-49
2022/04/13 04:19:08;;;;;;;31.90;16.85;;;;;;;1.18;100.00;100230.19;5032397;28;20053;-49
2022/04/13 04:21:54;;;;;;;33.92;17.23;;;;;;;1.30;100.00;100235.59;5032113;28;20065;-50
2022/04/13 04:24:39;;;;;;;56.03;25.40;;;;;;;1.39;100.00;100240.91;5029055;28;20863;-50
2022/04/13 04:27:24;;;;;;;83.43;35.75;;;;;;;1.38;100.00;100235.72;5016863;28;20128;-49
2022/04/13 04:30:09;;;;;;;70.00;30.42;;;;;;;1.40;100.00;100241.81;5014067;28;20061;-50
2022/04/13 04:32:53;;;;;;;42.85;21.08;;;;;;;1.37;100.00;100240.03;5014927;28;20053;-50
2022/04/13 04:35:39;;;;;;;39.60;17.98;;;;;;;1.37;100.00;100244.34;5018274;28;20644;-50
2022/04/13 04:38:23;;;;;;;38.83;18.25;;;;;;;1.42;100.00;100249.56;5031641;28;20045;-49
2022/04/13 04:41:08;;;;;;;39.40;19.77;;;;;;;1.49;100.00;100246.25;5032132;28;20128;-49
2022/04/13 04:43:53;;;;;;;29.33;16.63;;;;;;;1.58;100.00;100249.00;5028095;28;20049;-49
2022/04/13 04:46:37;;;;;;;46.67;21.75;;;;;;;1.81;100.00;100250.28;5021450;28;21835;-50
2022/04/13 04:49:22;;;;;;;57.20;29.33;;;;;;;1.98;100.00;100244.53;5017209;28;20050;-49
2022/04/13 04:52:07;;;;;;;71.05;35.15;;;;;;;2.18;100.00;100250.00;5013248;28;20076;-50
2022/04/13 04:54:51;;;;;;;52.28;25.95;;;;;;;2.26;100.00;100254.47;5010883;28;20041;-50
2022/04/13 04:57:38;;;;;;;47.72;24.15;;;;;;;2.34;100.00;100252.03;5022246;28;20068;-49
2022/04/13 05:00:22;;;;;;;54.08;25.27;;;;;;;2.47;100.00;100256.53;5018108;28;20057;-49
2022/04/13 05:03:08;;;;;;;48.38;22.73;;;;;;;2.66;100.00;100255.06;5018092;28;20376;-49
2022/04/13 05:05:52;;;;;;;45.83;20.52;;;;;;;3.51;100.00;100262.16;5026310;28;20053;-49
2022/04/13 05:08:37;;;;;;;39.10;19.80;;;;;;;4.27;100.00;100259.41;5028502;28;20768;-50
2022/04/13 05:11:22;;;;;;;38.20;19.40;;;;;;;4.86;100.00;100264.09;5021265;28;20323;-49
2022/04/13 05:14:07;;;;;;;42.70;21.50;;;;;;;5.70;94.55;100252.28;5028478;28;20747;-50
2022/04/13 05:16:51;;;;;;;40.92;20.42;;;;;;;6.06;87.13;100252.34;5020986;28;21723;-49
2022/04/13 05:19:36;;;;;;;34.40;18.50;;;;;;;6.16;83.34;100254.97;5027743;28;20042;-50
2022/04/13 05:22:20;;;;;;;35.80;19.90;;;;;;;7.09;83.50;100251.31;5026956;28;20073;-50
2022/04/13 05:25:14;;;;;;;34.08;18.23;;;;;;;7.49;77.81;100250.25;5011007;28;20049;-50
2022/04/13 05:27:59;;;;;;;31.80;17.50;;;;;;;7.70;73.43;100253.59;5012094;28;21376;-50
2022/04/13 05:30:43;;;;;;;33.60;17.77;;;;;;;8.47;73.36;100256.50;5017171;28;20045;-50
2022/04/13 05:33:28;;;;;;;30.83;18.23;;;;;;;8.97;71.77;100254.25;5016928;28;20053;-50
2022/04/13 05:36:13;;;;;;;30.20;16.40;;;;;;;9.13;65.30;100251.47;5015464;28;20141;-50
2022/04/13 05:38:57;;;;;;;35.40;18.98;;;;;;;9.55;67.81;100249.19;5014707;28;20053;-50
2022/04/13 05:41:42;;;;;;;42.35;20.73;;;;;;;9.84;62.48;100253.09;5015618;28;20069;-50
2022/04/13 05:44:26;;;;;;;38.38;20.00;;;;;;;10.25;64.40;100254.22;5025569;28;20045;-51
2022/04/13 05:47:11;;;;;;;35.33;18.25;;;;;;;10.38;62.74;100254.91;5032158;28;20053;-51
2022/04/13 05:49:55;;;;;;;43.33;20.92;;;;;;;10.87;59.58;100244.38;5031581;28;20045;-50
2022/04/13 05:52:40;;;;;;;38.05;19.45;;;;;;;10.88;60.82;100247.88;5026218;28;20045;-51
2022/04/13 05:55:25;;;;;;;33.85;20.30;;;;;;;10.70;58.41;100257.81;5017502;28;20053;-51
2022/04/13 05:58:10;;;;;;;35.40;19.15;;;;;;;11.53;58.90;100253.50;5016481;28;20046;-51
2022/04/13 06:00:55;;;;;;;30.77;17.90;;;;;;;11.50;54.59;100250.09;5028362;28;20053;-51
2022/04/13 06:03:40;;;;;;;32.67;18.60;;;;;;;11.30;53.85;100248.75;5015415;28;20054;-51
2022/04/13 06:06:28;;;;;;;31.00;17.98;;;;;;;11.71;55.21;100249.63;5021206;28;20049;-51
2022/04/13 06:09:12;;;;;;;35.70;17.90;;;;;;;12.53;55.04;100256.41;5021861;28;20049;-51
2022/04/13 06:11:57;;;;;;;28.33;16.55;;;;;;;12.09;53.96;100256.66;5027001;28;20049;-51
2022/04/13 06:14:42;;;;;;;24.77;14.48;;;;;;;11.90;53.53;100256.22;5017944;28;20049;-51
2022/04/13 06:17:26;;;;;;;23.90;13.48;;;;;;;12.32;53.60;100256.06;5032497;28;20065;-51
2022/04/13 06:20:11;;;;;;;22.02;13.55;;;;;;;11.51;53.62;100263.19;5029500;28;20053;-51
2022/04/13 06:22:55;;;;;;;21.48;12.45;;;;;;;12.39;52.75;100265.53;5024722;28;20050;-51
2022/04/13 06:25:39;;;;;;;20.80;13.25;;;;;;;11.46;51.88;100270.28;5030263;28;20045;-52
2022/04/13 06:28:24;;;;;;;23.13;11.75;;;;;;;12.93;52.76;100269.34;5014081;28;20550;-51
2022/04/13 06:31:09;;;;;;;19.75;12.20;;;;;;;13.67;49.43;100257.59;5015963;28;20058;-52
2022/04/13 06:33:54;;;;;;;20.75;13.38;;;;;;;13.07;50.42;100258.47;5024911;28;20053;-51
2022/04/13 06:36:38;;;;;;;22.17;12.90;;;;;;;13.21;50.33;100256.31;5018780;28;20467;-51
2022/04/13 06:39:23;;;;;;;26.15;13.38;;;;;;;13.25;50.03;100262.38;5021747;28;20057;-51
2022/04/13 06:42:07;;;;;;;24.95;13.80;;;;;;;13.61;48.09;100270.94;5021914;28;20172;-51
2022/04/13 06:44:52;;;;;;;17.83;11.85;;;;;;;14.17;48.88;100262.16;5015331;28;20061;-51
2022/04/13 06:47:38;;;;;;;21.67;12.27;;;;;;;13.28;48.84;100264.91;5010143;28;20723;-53
2022/04/13 06:50:23;;;;;;;18.85;11.80;;;;;;;14.21;48.84;100269.94;5017001;28;20346;-52
2022/04/13 06:53:07;;;;;;;20.42;12.73;;;;;;;13.59;48.20;100274.53;5025215;28;20080;-52
2022/04/13 06:55:52;;;;;;;20.50;12.70;;;;;;;14.65;46.07;100279.91;5027526;28;20143;-52
2022/04/13 06:58:37;;;;;;;19.83;12.35;;;;;;;14.39;45.41;100273.72;5026725;28;20172;-52
2022/04/13 07:01:21;;;;;;;23.30;12.93;;;;;;;14.60;47.49;100282.72;5028140;28;20072;-52
2022/04/13 07:04:06;;;;;;;20.17;12.68;;;;;;;14.39;45.17;100289.53;5021492;28;20057;-52
2022/04/13 07:06:50;;;;;;;24.27;12.45;;;;;;;14.76;45.19;100285.69;5031191;28;20056;-52
2022/04/13 07:09:35;;;;;;;18.85;11.38;;;;;;;15.27;46.09;100284.72;5031713;28;20056;-52
2022/04/13 07:12:20;;;;;;;21.20;12.93;;;;;;;15.62;43.72;100285.19;5031992;28;20123;-52
2022/04/13 07:15:04;;;;;;;17.05;10.88;;;;;;;15.61;43.67;100275.56;5031857;28;20046;-51
2022/04/13 07:17:50;;;;;;;19.80;11.05;;;;;;;15.48;44.53;100277.81;5029681;28;20073;-52
2022/04/13 07:20:34;;;;;;;27.73;17.63;;;;;;;16.16;42.35;100280.50;5031801;28;20491;-54
2022/04/13 07:23:18;;;;;;;22.00;14.60;;;;;;;16.02;43.11;100276.63;5030422;28;20049;-53
2022/04/13 07:26:03;;;;;;;19.17;11.60;;;;;;;15.72;42.63;100268.09;5029317;28;20049;-53
2022/04/13 07:28:48;;;;;;;16.05;10.55;;;;;;;15.98;42.14;100277.66;5028631;28;20057;-53
2022/04/13 07:31:32;;;;;;;26.02;14.93;;;;;;;16.54;40.17;100287.69;5031931;28;20100;-53
2022/04/13 07:34:17;;;;;;;14.40;10.68;;;;;;;16.69;39.82;100277.38;5029591;28;20484;-51
2022/04/13 07:37:04;;;;;;;17.77;10.07;;;;;;;16.83;40.00;100275.03;5025732;28;20049;-53
2022/04/13 07:39:48;;;;;;;20.17;11.82;;;;;;;16.89;38.65;100268.63;5031585;28;20057;-54
2022/04/13 07:42:32;;;;;;;16.95;10.70;;;;;;;16.50;38.78;100266.72;5029806;28;20065;-56
2022/04/13 07:45:18;;;;;;;21.25;12.00;;;;;;;16.53;38.75;100262.16;5020017;28;20050;-56
2022/04/13 07:48:02;;;;;;;15.80;10.25;;;;;;;16.30;38.88;100268.41;5021082;28;20065;-55
2022/04/13 07:50:47;;;;;;;21.05;10.98;;;;;;;16.48;39.23;100272.09;5020444;28;20549;-55
2022/04/13 07:53:31;;;;;;;16.90;10.00;;;;;;;16.71;38.96;100267.59;5014792;28;20057;-55
2022/04/13 07:56:16;;;;;;;16.67;9.90;;;;;;;16.69;38.71;100270.31;5029537;28;20077;-56
2022/04/13 07:59:00;;;;;;;16.33;10.45;;;;;;;16.80;39.23;100269.88;5022529;28;20080;-55
2022/04/13 08:01:44;;;;;;;15.15;10.50;;;;;;;16.77;38.36;100265.59;5022756;28;20049;-56
2022/04/13 08:04:29;;;;;;;23.55;11.60;;;;;;;16.93;38.30;100264.91;5019431;28;20038;-56
2022/04/13 08:07:14;;;;;;;13.70;9.75;;;;;;;17.17;37.73;100274.41;5016978;28;20049;-54
2022/04/13 08:09:59;;;;;;;17.77;9.60;;;;;;;17.56;37.72;100262.06;5032293;28;20049;-56
2022/04/13 08:12:46;;;;;;;14.88;9.95;;;;;;;17.86;37.16;100265.09;5018959;28;20064;-55
2022/04/13 08:15:31;;;;;;;16.15;9.93;;;;;;;18.12;37.51;100259.38;5014959;28;20136;-54
2022/04/13 08:18:16;;;;;;;16.95;10.38;;;;;;;17.81;36.48;100256.47;5022297;28;20052;-57
2022/04/13 08:21:02;;;;;;;15.23;10.27;;;;;;;17.79;36.44;100255.72;5015046;28;20046;-56
2022/04/13 08:23:47;;;;;;;15.73;9.90;;;;;;;17.74;36.21;100259.41;5025178;28;20049;-55
2022/04/13 08:26:31;;;;;;;21.38;10.57;;;;;;;17.64;36.77;100268.69;5031880;28;20049;-54
2022/04/13 08:29:16;;;;;;;18.20;10.77;;;;;;;17.64;37.60;100259.91;5028373;28;20050;-54
2022/04/13 08:32:01;;;;;;;14.50;10.13;;;;;;;17.88;36.59;100255.28;5015194;28;20057;-56
2022/04/13 08:34:48;;;;;;;15.23;10.40;;;;;;;17.76;36.50;100259.34;5014516;28;20120;-55
2022/04/13 08:37:34;;;;;;;15.18;10.48;;;;;;;18.02;37.03;100258.09;5014187;28;20049;-57
2022/04/13 08:40:20;;;;;;;19.70;11.82;;;;;;;17.90;37.40;100248.94;5015073;28;20460;-55
2022/04/13 08:43:09;;;;;;;16.42;10.73;;;;;;;18.22;37.28;100251.81;5021013;28;20732;-56
2022/04/13 08:45:57;;;;;;;16.02;10.27;;;;;;;18.42;36.26;100254.31;5014346;28;20061;-55
2022/04/13 08:48:45;;;;;;;14.73;10.10;;;;;;;18.11;36.08;100252.38;5018648;28;20056;-54
2022/04/13 08:51:33;;;;;;;18.58;10.43;;;;;;;18.42;36.71;100250.81;5022235;28;20408;-56
2022/04/13 08:54:21;;;;;;;14.18;9.75;;;;;;;18.62;37.33;100249.81;5019945;28;20052;-56
2022/04/13 08:57:09;;;;;;;19.73;10.38;;;;;;;18.28;36.76;100248.03;5016304;28;20428;-55
2022/04/13 09:00:10;;;;;;;13.75;10.40;;;;;;;18.42;36.69;100245.53;5014671;28;20045;-55
2022/04/13 09:03:18;;;;;;;18.13;9.55;;;;;;;18.50;34.21;100253.97;5014691;28;20054;-55
2022/04/13 09:06:04;;;;;;;16.73;10.32;;;;;;;18.22;35.53;100247.38;5024155;28;20624;-54
2022/04/13 09:08:53;;;;;;;15.32;10.10;;;;;;;18.24;35.92;100239.38;5024526;28;20064;-56
2022/04/13 09:11:39;;;;;;;16.55;9.75;;;;;;;18.31;36.14;100242.56;5023095;28;20045;-54
2022/04/13 09:14:27;;;;;;;17.35;10.50;;;;;;;18.40;35.45;100247.41;5026862;28;20046;-54
2022/04/13 09:17:12;;;;;;;14.18;8.82;;;;;;;18.46;35.90;100244.44;5030622;28;20484;-54
2022/04/13 09:19:58;;;;;;;16.15;9.02;;;;;;;18.56;35.79;100256.31;5027282;28;20144;-56
2022/04/13 09:22:43;;;;;;;11.52;8.30;;;;;;;18.85;35.44;100246.88;5022585;28;20060;-52
2022/04/13 09:25:31;;;;;;;13.98;8.75;;;;;;;19.03;35.57;100245.03;5024898;28;20041;-53
2022/04/13 09:28:15;;;;;;;15.50;9.75;;;;;;;19.02;34.75;100237.16;5027974;28;20077;-51
2022/04/13 09:31:00;;;;;;;14.43;8.82;;;;;;;19.19;34.67;100241.56;5025674;28;20065;-51
2022/04/13 09:33:45;;;;;;;14.07;9.25;;;;;;;19.01;34.43;100244.28;5026784;28;20049;-51
2022/04/13 09:36:29;;;;;;;13.60;8.85;;;;;;;19.04;34.51;100241.44;5023081;28;20045;-51
2022/04/13 09:39:15;;;;;;;12.45;8.88;;;;;;;19.01;33.70;100241.63;5021130;28;20098;-51
2022/04/13 09:42:06;;;;;;;15.27;9.40;;;;;;;18.85;34.37;100243.38;5018768;28;20041;-51
2022/04/13 09:44:57;;;;;;;15.40;9.52;;;;;;;18.99;34.40;100234.66;5029803;28;20400;-52
2022/04/13 09:47:47;;;;;;;13.32;9.18;;;;;;;19.00;35.24;100236.38;5030831;28;20084;-51
2022/04/13 09:50:32;;;;;;;14.70;10.55;;;;;;;19.03;34.14;100242.38;5027609;28;20152;-51
2022/04/13 09:53:20;;;;;;;15.38;9.93;;;;;;;18.70;34.75;100234.38;5023663;28;20064;-51
2022/04/13 09:56:04;;;;;;;19.67;9.68;;;;;;;18.94;35.39;100240.19;5019227;28;20045;-51
2022/04/13 09:58:49;;;;;;;18.75;11.50;;;;;;;19.32;34.43;100237.31;5021497;28;20054;-51
2022/04/13 10:01:37;;;;;;;16.25;9.15;;;;;;;19.32;33.58;100232.84;5026497;28;20191;-51
2022/04/13 10:04:26;;;;;;;13.70;9.48;;;;;;;19.14;33.00;100240.03;5018512;28;20084;-51
2022/04/13 10:07:18;;;;;;;15.02;9.32;;;;;;;19.24;34.05;100231.53;5021096;28;20618;-52
2022/04/13 10:10:03;;;;;;;14.20;9.85;;;;;;;19.53;34.35;100229.94;5023038;28;20053;-52
2022/04/13 10:12:48;;;;;;;13.80;9.63;;;;;;;19.84;32.51;100235.28;5021715;28;20092;-52
2022/04/13 10:15:33;;;;;;;14.75;9.98;;;;;;;19.61;32.76;100230.38;5023207;28;20080;-52
2022/04/13 10:18:17;;;;;;;13.60;9.07;;;;;;;19.73;32.91;100226.22;5021068;28;20045;-53
2022/04/13 10:21:02;;;;;;;14.13;8.88;;;;;;;19.66;32.56;100224.84;5021203;28;20062;-53
2022/04/13 10:23:46;;;;;;;12.73;9.48;;;;;;;19.51;32.95;100224.72;5019287;28;20480;-52
2022/04/13 10:26:31;;;;;;;12.18;8.27;;;;;;;19.88;32.57;100232.47;5019080;28;20468;-51
2022/04/13 10:29:17;;;;;;;12.10;8.68;;;;;;;20.07;31.95;100222.47;5015353;28;20089;-51
2022/04/13 10:32:08;;;;;;;17.35;9.13;;;;;;;20.05;33.31;100219.03;5017622;28;20724;-52
2022/04/13 10:34:55;;;;;;;14.07;8.23;;;;;;;20.38;33.17;100215.38;5016527;28;20041;-51
2022/04/13 10:37:39;;;;;;;11.48;8.80;;;;;;;20.36;33.10;100204.81;5020622;28;20913;-51
2022/04/13 10:40:31;;;;;;;15.30;8.63;;;;;;;20.29;32.14;100207.00;5017874;28;20058;-53
2022/04/13 10:43:17;;;;;;;13.40;7.95;;;;;;;20.32;33.32;100197.97;5015138;28;20068;-51
2022/04/13 10:46:02;;;;;;;12.20;8.50;;;;;;;20.24;33.08;100195.75;5015922;28;20046;-51
2022/04/13 10:48:54;;;;;;;14.48;8.98;;;;;;;20.22;32.68;100200.31;5025252;28;20094;-52
2022/04/13 10:51:39;;;;;;;12.57;8.15;;;;;;;20.36;32.98;100193.34;5017879;28;20136;-52
2022/04/13 10:54:30;;;;;;;13.43;9.23;;;;;;;20.37;33.58;100197.69;5016998;28;20046;-52
2022/04/13 10:57:18;;;;;;;15.52;8.85;;;;;;;20.22;33.23;100195.00;5011325;28;20152;-52
2022/04/13 11:00:06;;;;;;;12.10;8.20;;;;;;;20.65;32.25;100196.94;5017314;28;20660;-51
2022/04/13 11:02:57;;;;;;;10.65;8.27;;;;;;;20.77;30.52;100194.38;5016831;28;21671;-52
2022/04/13 11:05:42;;;;;;;12.88;8.98;;;;;;;20.65;30.65;100186.28;5017130;28;20460;-52
2022/04/13 11:08:32;;;;;;;12.50;8.43;;;;;;;20.71;31.45;100184.13;5016825;28;20076;-51
2022/04/13 11:11:20;;;;;;;12.38;8.02;;;;;;;20.80;30.92;100182.72;5018065;28;20057;-51
2022/04/13 11:14:18;;;;;;;12.68;7.70;;;;;;;21.12;30.27;100187.81;5026742;28;20166;-51
2022/04/13 11:17:06;;;;;;;12.57;7.43;;;;;;;21.24;29.45;100187.91;5032625;28;20049;-52
2022/04/13 11:19:50;;;;;;;13.30;7.90;;;;;;;21.28;29.77;100191.22;5032154;28;20045;-51
2022/04/13 11:22:35;;;;;;;11.02;8.05;;;;;;;21.58;29.42;100183.13;5028962;28;20049;-52
2022/04/13 11:25:48;;;;;;;9.45;7.32;;;;;;;21.91;30.89;100185.38;5029050;28;20424;-52
2022/04/13 11:28:32;;;;;;;;;;;;;;;22.00;29.52;100189.25;5031388;28;20058;-51
2022/04/13 11:31:17;;;;;;;15.23;8.30;;;;;;;21.99;29.12;100186.69;5028112;28;19929;-52
2022/04/13 11:34:06;;;;;;;9.45;7.10;;;;;;;21.87;28.71;100183.88;5032591;28;20057;-52
2022/04/13 11:36:51;;;;;;;9.50;7.35;;;;;;;21.61;27.98;100177.59;5032328;28;20073;-52
2022/04/13 11:39:57;;;;;;;11.93;7.68;;;;;;;21.65;29.80;100175.59;5028826;28;20783;-52
2022/04/13 11:42:43;;;;;;;8.93;7.13;;;;;;;21.57;30.63;100175.22;5030289;28;20076;-52
2022/04/13 11:45:29;;;;;;;9.73;7.72;;;;;;;21.56;29.25;100176.19;5030733;28;20037;-52
2022/04/13 11:48:32;;;;;;;14.88;8.07;;;;;;;21.72;28.92;100171.56;5026555;28;20048;-52
2022/04/13 11:51:29;;;;;;;12.10;6.85;;;;;;;22.00;28.53;100169.72;5029503;28;20048;-52
2022/04/13 11:54:13;;;;;;;10.88;7.35;;;;;;;22.25;28.81;100177.81;5024491;28;20053;-53
2022/04/13 11:56:58;;;;;;;10.85;6.57;;;;;;;22.34;28.18;100161.19;5025499;28;20115;-52
2022/04/13 11:59:46;;;;;;;9.32;7.10;;;;;;;22.20;28.86;100157.72;5030643;28;20038;-51
2022/04/13 12:02:32;;;;;;;11.60;7.85;;;;;;;22.31;28.92;100152.53;5020196;28;20089;-52
2022/04/13 12:05:18;;;;;;;9.95;6.93;;;;;;;22.42;28.66;100155.31;5030633;28;20057;-51
2022/04/13 12:08:10;;;;;;;16.60;12.23;;;;;;;21.41;29.08;100146.03;5029757;28;20084;-52
2022/04/13 12:10:59;;;;;;;9.55;7.32;;;;;;;22.25;28.39;100145.78;5025432;28;20086;-51
2022/04/13 12:13:58;;;;;;;10.63;6.80;;;;;;;22.22;28.10;100139.81;5021355;28;20038;-52
2022/04/13 12:16:44;;;;;;;10.82;8.02;;;;;;;22.15;28.09;100140.22;5020781;28;20056;-51
2022/04/13 12:19:41;;;;;;;9.25;6.28;;;;;;;21.64;28.39;100133.88;5032704;28;20056;-51
2022/04/13 12:22:25;;;;;;;11.35;7.30;;;;;;;22.12;27.72;100135.06;5032519;28;20055;-51
2022/04/13 12:25:10;;;;;;;12.52;7.72;;;;;;;22.00;28.60;100133.25;5030743;28;20123;-52
2022/04/13 12:28:05;;;;;;;13.30;7.35;;;;;;;21.95;28.19;100132.69;5015219;28;20052;-51
2022/04/13 12:30:56;;;;;;;8.07;6.25;;;;;;;22.36;28.41;100129.06;5030246;28;20128;-52
2022/04/13 12:33:41;;;;;;;12.43;6.88;;;;;;;22.61;27.57;100122.84;5029242;28;20152;-52
2022/04/13 12:36:26;;;;;;;10.27;6.50;;;;;;;22.91;28.22;100130.53;5026412;28;20051;-51